Time;durP1;ratioP1;P1;durP2;ratioP2;P2;SDS_P1;SDS_P2;PMS_P1;PMS_P2;Temp;Humidity;BMP_temperature;BMP_pressure;BME280_temperature;BME280_humidity;BME280_pressure;Samples;Min_cycle;Max_cycle;Signal;HPM_P1;HPM_P2
2023/06/09 00:01:35;;;;;;;7.05;4.85;;;;;;;18.93;62.74;99181.03;5034256;28;20025;-74
2023/06/09 00:04:06;;;;;;;7.45;4.97;;;;;;;19.15;61.62;99178.28;5019126;28;20420;-74
2023/06/09 00:06:32;;;;;;;6.63;4.90;;;;;;;19.20;61.42;99177.91;5012805;28;20030;-74
2023/06/09 00:08:57;;;;;;;20.20;4.55;;;;;;;19.21;61.58;99176.72;5014356;28;20029;-74
2023/06/09 00:11:23;;;;;;;8.35;4.15;;;;;;;19.04;62.03;99171.78;5013515;28;20041;-74
2023/06/09 00:13:49;;;;;;;14.23;5.53;;;;;;;18.61;63.76;99178.06;5014123;28;20480;-74
2023/06/09 00:16:15;;;;;;;8.80;5.38;;;;;;;18.23;65.06;99178.28;5012879;28;20034;-74
2023/06/09 00:18:41;;;;;;;9.55;4.93;;;;;;;18.02;65.66;99179.72;5014285;28;20036;-74
2023/06/09 00:21:07;;;;;;;9.27;5.15;;;;;;;18.28;65.06;99177.88;5024496;28;20034;-73
2023/06/09 00:23:32;;;;;;;13.68;5.38;;;;;;;18.63;63.55;99179.28;5025818;28;20083;-73
2023/06/09 00:25:58;;;;;;;5.68;4.88;;;;;;;18.85;62.70;99170.91;5029419;28;20461;-74
2023/06/09 00:28:23;;;;;;;6.25;4.80;;;;;;;18.77;62.66;99166.41;5015986;28;20034;-74
2023/06/09 00:30:49;;;;;;;10.45;6.00;;;;;;;18.85;62.84;99176.56;5026515;28;20573;-74
2023/06/09 00:33:15;;;;;;;9.98;5.30;;;;;;;18.60;63.46;99177.25;5019142;28;20107;-74
2023/06/09 00:35:40;;;;;;;7.68;5.78;;;;;;;17.92;65.99;99181.25;5012814;28;20029;-74
2023/06/09 00:38:06;;;;;;;7.75;5.90;;;;;;;17.73;66.86;99178.66;5014048;28;20030;-74
2023/06/09 00:40:31;;;;;;;14.48;6.47;;;;;;;17.70;67.44;99174.59;5016220;28;20091;-73
2023/06/09 00:42:57;;;;;;;7.40;5.57;;;;;;;16.85;70.73;99168.47;5021013;28;20060;-73
2023/06/09 00:45:22;;;;;;;8.50;6.45;;;;;;;16.48;73.01;99178.50;5025087;28;20063;-74
2023/06/09 00:47:47;;;;;;;9.77;6.18;;;;;;;16.74;72.47;99179.63;5031586;28;20061;-74
2023/06/09 00:50:16;;;;;;;8.68;6.32;;;;;;;16.74;72.60;99178.81;5027957;28;20033;-74
2023/06/09 00:52:43;;;;;;;8.13;6.43;;;;;;;16.60;72.87;99180.25;5017447;28;20033;-73
2023/06/09 00:55:12;;;;;;;11.30;6.97;;;;;;;16.64;73.18;99174.66;5017720;28;20030;-73
2023/06/09 00:57:39;;;;;;;8.50;6.13;;;;;;;16.81;72.66;99167.63;5032694;28;20033;-73
2023/06/09 01:00:06;;;;;;;12.90;6.40;;;;;;;17.01;71.82;99165.44;5024549;28;20040;-74
2023/06/09 01:02:32;;;;;;;14.80;7.35;;;;;;;17.09;71.41;99169.16;5012441;28;20044;-74
2023/06/09 01:04:58;;;;;;;11.10;6.45;;;;;;;17.01;71.51;99165.44;5011845;28;20132;-74
2023/06/09 01:07:40;;;;;;;7.97;6.70;;;;;;;17.07;71.10;99174.41;5013032;28;20030;-74
2023/06/09 01:10:22;;;;;;;7.90;6.57;;;;;;;16.54;73.25;99173.34;5013206;28;20447;-74
2023/06/09 01:13:09;;;;;;;8.05;6.53;;;;;;;16.22;74.66;99180.13;5032575;28;20069;-74
2023/06/09 01:15:43;;;;;;;7.53;6.60;;;;;;;16.03;76.03;99180.25;5023423;28;20042;-74
2023/06/09 01:18:12;;;;;;;11.48;7.45;;;;;;;15.79;76.20;99179.44;5012260;28;20041;-74
2023/06/09 01:20:45;;;;;;;7.70;6.63;;;;;;;15.65;76.79;99177.19;5028979;28;20029;-74
2023/06/09 01:23:39;;;;;;;9.68;7.53;;;;;;;15.48;77.77;99173.72;5022446;28;20037;-74
2023/06/09 01:26:06;;;;;;;10.00;6.78;;;;;;;15.48;77.12;99170.88;5009820;28;20096;-74
2023/06/09 01:28:35;;;;;;;9.15;6.55;;;;;;;15.65;77.03;99174.38;5013293;28;20017;-73
2023/06/09 01:31:01;;;;;;;11.63;6.65;;;;;;;15.87;76.13;99172.75;5012749;28;20040;-73
2023/06/09 01:33:27;;;;;;;10.65;7.38;;;;;;;15.97;75.66;99177.75;5016087;28;20038;-73
2023/06/09 01:35:54;;;;;;;8.32;6.35;;;;;;;16.06;75.47;99179.50;5011553;28;20033;-73
2023/06/09 01:38:21;;;;;;;8.40;7.35;;;;;;;16.23;74.43;99181.78;5020113;28;20517;-73
2023/06/09 01:40:48;;;;;;;12.57;7.50;;;;;;;15.85;75.79;99170.28;5015661;28;20033;-73
2023/06/09 01:43:13;;;;;;;11.73;6.80;;;;;;;15.96;75.73;99172.50;5026297;28;20033;-73
2023/06/09 01:45:39;;;;;;;9.85;6.88;;;;;;;16.06;75.71;99174.69;5012489;28;20039;-73
2023/06/09 01:48:37;;;;;;;9.90;6.93;;;;;;;16.28;74.49;99180.63;5010902;28;20034;-73
2023/06/09 01:51:28;;;;;;;11.63;7.43;;;;;;;16.20;74.55;99174.06;5006175;28;20528;-73
2023/06/09 01:54:01;;;;;;;10.18;7.40;;;;;;;16.01;75.59;99175.00;5017445;28;20057;-74
2023/06/09 01:56:32;;;;;;;11.43;6.63;;;;;;;16.23;74.65;99175.31;5032214;28;20488;-74
2023/06/09 01:59:00;;;;;;;;;;;;;;;16.43;74.06;99176.00;5023929;28;20192;-73
2023/06/09 02:01:27;;;;;;;10.52;6.78;;;;;;;16.54;73.50;99176.16;5012533;28;19909;-74
2023/06/09 02:03:55;;;;;;;13.60;7.50;;;;;;;16.47;73.79;99176.88;5031771;28;20061;-74
2023/06/09 02:06:20;;;;;;;9.57;7.22;;;;;;;16.33;73.96;99183.13;5030102;28;20087;-73
2023/06/09 02:08:47;;;;;;;10.20;7.38;;;;;;;16.36;74.12;99179.53;5012579;28;20030;-74
2023/06/09 02:11:12;;;;;;;18.27;7.90;;;;;;;16.36;74.11;99179.53;5031923;28;20040;-73
2023/06/09 02:13:38;;;;;;;36.40;8.80;;;;;;;16.31;74.38;99173.41;5031619;28;20033;-74
2023/06/09 02:16:04;;;;;;;15.70;8.18;;;;;;;16.22;75.00;99165.22;5030421;28;20036;-73
2023/06/09 02:18:32;;;;;;;11.90;6.95;;;;;;;16.03;75.69;99178.25;5029526;28;20026;-73
2023/06/09 02:20:58;;;;;;;21.30;6.63;;;;;;;16.01;75.78;99172.16;5030309;28;20029;-73
2023/06/09 02:23:23;;;;;;;11.82;7.68;;;;;;;16.14;75.49;99170.75;5026324;28;20116;-73
2023/06/09 02:25:49;;;;;;;9.48;7.93;;;;;;;15.98;75.27;99175.75;5018937;28;20480;-73
2023/06/09 02:28:16;;;;;;;11.70;7.20;;;;;;;15.56;77.70;99166.97;5010720;28;20034;-74
2023/06/09 02:30:42;;;;;;;17.48;7.72;;;;;;;15.46;78.28;99167.63;5011533;28;20057;-73
2023/06/09 02:33:08;;;;;;;22.85;8.90;;;;;;;15.20;79.39;99168.38;5013647;28;20053;-73
2023/06/09 02:35:34;;;;;;;12.63;7.55;;;;;;;15.02;79.99;99166.84;5013013;28;20030;-73
2023/06/09 02:38:04;;;;;;;18.92;9.10;;;;;;;14.84;81.13;99174.94;5027832;28;20119;-73
2023/06/09 02:40:29;;;;;;;16.08;8.75;;;;;;;14.92;80.39;99169.44;5030212;28;20022;-73
2023/06/09 02:42:55;;;;;;;13.18;8.75;;;;;;;14.82;80.90;99165.22;5024126;28;20527;-73
2023/06/09 02:45:20;;;;;;;10.90;7.85;;;;;;;14.78;81.51;99175.59;5011594;28;20511;-73
2023/06/09 02:47:46;;;;;;;20.02;8.57;;;;;;;14.81;80.77;99175.69;5015467;28;20459;-73
2023/06/09 02:50:11;;;;;;;12.45;9.00;;;;;;;15.01;80.09;99164.38;5021582;28;20682;-73
2023/06/09 02:52:39;;;;;;;12.23;8.07;;;;;;;14.93;80.26;99180.31;5019728;28;20091;-73
2023/06/09 02:55:05;;;;;;;14.10;7.68;;;;;;;14.76;81.06;99175.97;5011042;28;20030;-73
2023/06/09 02:57:31;;;;;;;15.45;7.80;;;;;;;14.86;80.93;99177.38;5011415;28;20108;-73
2023/06/09 02:59:58;;;;;;;12.63;8.52;;;;;;;15.02;80.64;99185.72;5014956;28;20021;-73
2023/06/09 03:02:24;;;;;;;14.88;8.05;;;;;;;14.83;80.90;99183.75;5014267;28;20026;-73
2023/06/09 03:04:52;;;;;;;19.60;8.25;;;;;;;14.98;80.53;99185.69;5011298;28;20080;-73
2023/06/09 03:07:17;;;;;;;28.73;8.73;;;;;;;14.96;80.59;99188.06;5016544;28;20105;-73
2023/06/09 03:09:45;;;;;;;22.35;8.90;;;;;;;15.06;80.60;99186.63;5024164;28;20501;-73
2023/06/09 03:12:10;;;;;;;19.63;8.73;;;;;;;15.06;80.26;99186.63;5027852;28;20018;-73
2023/06/09 03:14:36;;;;;;;12.20;8.13;;;;;;;14.77;81.64;99174.78;5030281;28;20566;-73
2023/06/09 03:17:04;;;;;;;18.80;9.57;;;;;;;14.63;82.51;99180.06;5030653;28;20060;-73
2023/06/09 03:19:30;;;;;;;11.93;8.10;;;;;;;14.65;82.94;99177.72;5010950;28;20103;-73
2023/06/09 03:21:57;;;;;;;32.67;8.77;;;;;;;14.82;81.82;99180.13;5023404;28;20429;-73
2023/06/09 03:24:23;;;;;;;12.82;7.97;;;;;;;14.64;82.27;99187.34;5013653;28;20041;-73
2023/06/09 03:26:49;;;;;;;13.10;9.50;;;;;;;14.56;83.02;99189.19;5014992;28;20509;-73
2023/06/09 03:29:15;;;;;;;15.48;8.18;;;;;;;14.56;83.34;99175.13;5010945;28;20065;-73
2023/06/09 03:31:41;;;;;;;14.27;8.10;;;;;;;14.39;84.07;99176.34;5012585;28;20049;-73
2023/06/09 03:34:07;;;;;;;17.50;7.53;;;;;;;14.25;84.95;99177.66;5012257;28;20026;-73
2023/06/09 03:36:35;;;;;;;14.65;8.38;;;;;;;14.24;85.58;99175.22;5009076;28;20044;-73
2023/06/09 03:39:01;;;;;;;19.05;7.50;;;;;;;14.11;86.52;99175.34;5019685;28;20037;-73
2023/06/09 03:41:27;;;;;;;17.23;8.45;;;;;;;14.03;87.33;99187.63;5027113;28;20021;-73
2023/06/09 03:43:52;;;;;;;13.13;8.30;;;;;;;14.00;87.71;99183.53;5011373;28;20136;-73
2023/06/09 03:46:18;;;;;;;11.70;8.65;;;;;;;14.00;88.16;99179.91;5014629;28;20026;-73
2023/06/09 03:48:43;;;;;;;11.43;8.15;;;;;;;14.04;88.33;99194.88;5027989;28;20051;-73
2023/06/09 03:51:08;;;;;;;16.33;8.48;;;;;;;14.03;88.73;99187.63;5024820;28;20057;-73
2023/06/09 03:53:34;;;;;;;12.23;7.72;;;;;;;14.07;89.38;99193.34;5017035;28;20025;-73
2023/06/09 03:56:00;;;;;;;15.02;8.48;;;;;;;14.15;89.26;99186.69;5030565;28;20472;-73
2023/06/09 03:58:26;;;;;;;11.75;8.38;;;;;;;14.22;88.79;99192.47;5030603;28;20025;-73
2023/06/09 04:00:51;;;;;;;14.77;8.85;;;;;;;14.22;89.31;99178.41;5026272;28;20100;-73
2023/06/09 04:03:18;;;;;;;13.75;9.35;;;;;;;14.28;89.47;99188.19;5010841;28;20137;-73
2023/06/09 04:05:44;;;;;;;21.42;9.88;;;;;;;14.28;89.52;99179.75;5010607;28;20030;-73
2023/06/09 04:08:10;;;;;;;25.27;9.20;;;;;;;14.19;89.99;99176.34;5008745;28;20025;-73
2023/06/09 04:10:36;;;;;;;17.00;9.13;;;;;;;14.36;90.72;99191.16;5009587;28;20081;-73
2023/06/09 04:13:01;;;;;;;16.67;8.75;;;;;;;14.39;90.31;99182.81;5024890;28;20033;-73
2023/06/09 04:15:27;;;;;;;12.50;8.40;;;;;;;14.58;89.59;99184.00;5023859;28;20068;-73
2023/06/09 04:17:52;;;;;;;16.13;9.35;;;;;;;14.83;89.00;99178.09;5018017;28;20037;-73
2023/06/09 04:20:21;;;;;;;16.00;8.60;;;;;;;14.90;88.13;99186.72;5029558;28;20457;-73
2023/06/09 04:22:50;;;;;;;17.38;9.27;;;;;;;15.06;87.79;99191.44;5014279;28;20067;-73
2023/06/09 04:25:16;;;;;;;9.50;8.00;;;;;;;15.19;86.75;99189.28;5024338;28;20044;-74
2023/06/09 04:27:42;;;;;;;14.40;8.80;;;;;;;15.35;86.11;99192.78;5016784;28;20116;-73
2023/06/09 04:30:08;;;;;;;12.27;9.00;;;;;;;15.53;85.09;99181.03;5017163;28;20426;-73
2023/06/09 04:32:34;;;;;;;11.50;8.18;;;;;;;15.70;83.84;99180.53;5029422;28;20052;-74
2023/06/09 04:35:02;;;;;;;13.88;8.35;;;;;;;15.53;83.55;99176.19;5027120;28;20035;-76
2023/06/09 04:37:27;;;;;;;12.60;7.82;;;;;;;15.54;84.87;99177.03;5023182;28;20029;-74
2023/06/09 04:39:53;;;;;;;9.35;8.13;;;;;;;15.65;84.44;99180.03;5029233;28;20045;-73
2023/06/09 04:42:20;;;;;;;17.60;8.73;;;;;;;15.70;84.40;99179.72;5021455;28;20025;-75
2023/06/09 04:44:49;;;;;;;12.52;8.18;;;;;;;15.97;83.10;99186.22;5027530;28;20030;-73
2023/06/09 04:47:18;;;;;;;16.35;8.15;;;;;;;16.21;82.19;99184.16;5015406;28;20077;-72
2023/06/09 04:49:49;;;;;;;12.55;7.70;;;;;;;16.48;80.82;99174.84;5012523;28;20030;-73
2023/06/09 04:52:17;;;;;;;11.00;7.60;;;;;;;16.76;79.68;99177.25;5020047;28;20353;-73
2023/06/09 04:54:44;;;;;;;16.77;9.13;;;;;;;16.86;78.69;99175.75;5029767;28;20025;-73
2023/06/09 04:57:10;;;;;;;13.25;7.13;;;;;;;16.76;78.46;99179.25;5031609;28;20492;-73
2023/06/09 04:59:40;;;;;;;13.07;7.82;;;;;;;16.98;77.83;99175.47;5031009;28;20053;-71
2023/06/09 05:02:06;;;;;;;14.93;8.48;;;;;;;17.36;77.11;99186.00;5029698;28;20044;-70
2023/06/09 05:04:31;;;;;;;23.35;8.23;;;;;;;17.49;76.18;99186.53;5024497;28;20033;-72
2023/06/09 05:06:57;;;;;;;13.93;6.45;;;;;;;17.46;73.75;99187.31;5018984;28;20033;-70
2023/06/09 05:09:23;;;;;;;9.45;6.18;;;;;;;17.56;73.78;99186.63;5024270;28;20508;-73
2023/06/09 05:11:48;;;;;;;11.60;7.65;;;;;;;17.82;72.73;99188.44;5013028;28;20033;-72
2023/06/09 05:14:14;;;;;;;23.73;9.98;;;;;;;18.15;72.00;99187.91;5014971;28;20037;-73
2023/06/09 05:16:40;;;;;;;10.23;7.07;;;;;;;18.12;70.17;99177.38;5016141;28;20103;-77
2023/06/09 05:19:06;;;;;;;14.05;6.50;;;;;;;18.14;69.65;99184.25;5016993;28;20040;-75
2023/06/09 05:21:31;;;;;;;10.48;6.55;;;;;;;18.49;69.46;99179.22;5015542;28;20427;-73
2023/06/09 05:23:57;;;;;;;13.00;7.20;;;;;;;18.63;67.98;99184.13;5023203;28;20026;-73
2023/06/09 05:26:23;;;;;;;10.82;6.85;;;;;;;18.73;66.66;99176.91;5013570;28;20036;-79
2023/06/09 05:28:48;;;;;;;12.63;6.03;;;;;;;18.50;66.78;99173.16;5019024;28;20029;-72
2023/06/09 05:31:16;;;;;;;12.23;6.10;;;;;;;19.05;66.03;99174.22;5017215;28;20472;-75
2023/06/09 05:33:42;;;;;;;8.70;5.80;;;;;;;19.26;64.82;99175.50;5017110;28;20199;-77
2023/06/09 05:36:08;;;;;;;9.60;5.78;;;;;;;19.05;64.84;99167.72;5024000;28;20037;-76
2023/06/09 05:38:34;;;;;;;15.65;6.18;;;;;;;19.37;64.10;99175.50;5019395;28;20492;-70
2023/06/09 05:40:59;;;;;;;9.77;5.72;;;;;;;19.66;62.97;99172.69;5020254;28;20021;-70
2023/06/09 05:43:26;;;;;;;8.68;5.25;;;;;;;19.82;62.63;99169.47;5020047;28;20032;-72
2023/06/09 05:45:52;;;;;;;17.73;6.85;;;;;;;20.15;61.82;99184.47;5025589;28;20035;-72
2023/06/09 05:48:17;;;;;;;19.05;6.40;;;;;;;20.19;61.21;99176.75;5024982;28;20033;-72
2023/06/09 05:50:45;;;;;;;8.57;5.90;;;;;;;20.15;61.61;99170.28;5030709;28;20068;-72
2023/06/09 05:53:10;;;;;;;8.52;5.57;;;;;;;19.96;61.58;99173.53;5029831;28;20079;-72
2023/06/09 05:55:36;;;;;;;11.27;5.32;;;;;;;20.10;60.75;99181.25;5026721;28;20029;-72
2023/06/09 05:58:02;;;;;;;7.75;5.32;;;;;;;20.48;60.34;99182.38;5023631;28;20364;-75
2023/06/09 06:00:30;;;;;;;11.02;5.68;;;;;;;20.89;59.06;99183.91;5021109;28;20037;-76
2023/06/09 06:03:02;;;;;;;7.38;5.32;;;;;;;20.96;58.53;99185.91;5028015;28;20017;-76
2023/06/09 06:05:29;;;;;;;9.98;5.28;;;;;;;21.14;58.11;99176.47;5020148;28;20443;-75
2023/06/09 06:07:55;;;;;;;8.98;4.75;;;;;;;21.52;58.03;99185.16;5027632;28;20032;-78
2023/06/09 06:10:22;;;;;;;7.90;4.93;;;;;;;21.91;57.79;99171.09;5028493;28;20120;-74
2023/06/09 06:12:47;;;;;;;11.50;5.20;;;;;;;21.63;56.40;99173.72;5026190;28;20410;-73
2023/06/09 06:15:13;;;;;;;8.88;5.43;;;;;;;21.53;58.64;99174.59;5026187;28;20041;-75
2023/06/09 06:17:38;;;;;;;7.47;4.97;;;;;;;21.84;57.34;99178.44;5016910;28;20030;-75
2023/06/09 06:20:05;;;;;;;26.33;5.85;;;;;;;21.80;56.87;99171.16;5014558;28;20033;-74
2023/06/09 06:22:31;;;;;;;18.85;6.13;;;;;;;21.49;57.12;99179.50;5023302;28;20147;-75
2023/06/09 06:24:56;;;;;;;7.40;4.90;;;;;;;21.59;56.01;99161.53;5028912;28;20022;-75
2023/06/09 06:27:23;;;;;;;9.52;5.43;;;;;;;21.60;56.23;99172.50;5017849;28;20041;-75
2023/06/09 06:29:48;;;;;;;7.75;5.05;;;;;;;21.81;55.91;99172.78;5022013;28;20037;-75
2023/06/09 06:32:14;;;;;;;5.45;3.83;;;;;;;22.20;55.35;99160.19;5020186;28;20472;-76
2023/06/09 06:34:40;;;;;;;8.63;5.00;;;;;;;22.59;55.32;99163.91;5023303;28;20032;-76
2023/06/09 06:37:05;;;;;;;7.30;4.45;;;;;;;22.08;54.53;99160.72;5027427;28;20488;-76
2023/06/09 06:39:31;;;;;;;8.18;4.97;;;;;;;22.37;54.33;99160.47;5027428;28;20052;-76
2023/06/09 06:41:56;;;;;;;9.93;4.82;;;;;;;22.45;53.91;99164.84;5026989;28;20530;-76
2023/06/09 06:44:22;;;;;;;8.35;5.25;;;;;;;22.83;52.99;99169.72;5027027;28;20092;-77
2023/06/09 06:46:47;;;;;;;5.57;4.88;;;;;;;22.71;54.27;99154.78;5023481;28;20484;-76
2023/06/09 06:49:13;;;;;;;9.65;5.32;;;;;;;22.73;54.07;99162.91;5029981;28;20036;-76
2023/06/09 06:51:39;;;;;;;13.88;5.13;;;;;;;22.89;52.54;99158.66;5024738;28;20040;-77
2023/06/09 06:54:05;;;;;;;12.25;5.85;;;;;;;23.35;51.80;99154.38;5020509;28;20452;-77
2023/06/09 06:56:31;;;;;;;4.68;3.80;;;;;;;23.51;50.36;99150.88;5023837;28;20034;-73
2023/06/09 06:58:57;;;;;;;6.20;4.30;;;;;;;22.79;51.85;99157.56;5025452;28;20029;-74
2023/06/09 07:01:22;;;;;;;6.07;5.00;;;;;;;21.97;55.30;99146.63;5020325;28;20037;-74
2023/06/09 07:03:52;;;;;;;8.48;4.53;;;;;;;21.91;55.16;99148.31;5012018;28;20026;-72
2023/06/09 07:06:19;;;;;;;5.53;4.55;;;;;;;22.34;53.12;99145.00;5015000;28;20546;-77
2023/06/09 07:08:45;;;;;;;8.05;5.15;;;;;;;22.65;51.97;99141.44;5012844;28;20075;-75
2023/06/09 07:11:10;;;;;;;8.82;4.63;;;;;;;22.93;51.61;99142.31;5017485;28;20065;-76
2023/06/09 07:13:36;;;;;;;10.10;4.53;;;;;;;23.40;50.70;99135.97;5014991;28;20103;-78
2023/06/09 07:16:01;;;;;;;11.85;4.35;;;;;;;23.38;50.09;99139.22;5014465;28;20044;-75
2023/06/09 07:18:27;;;;;;;6.15;3.90;;;;;;;23.71;49.93;99135.84;5023422;28;20029;-75
2023/06/09 07:20:53;;;;;;;6.38;3.70;;;;;;;22.97;50.13;99137.38;5022598;28;20041;-74
2023/06/09 07:23:19;;;;;;;7.80;3.90;;;;;;;23.11;49.73;99137.16;5025706;28;20028;-75
2023/06/09 07:25:44;;;;;;;4.45;3.88;;;;;;;23.82;49.26;99133.63;5013135;28;20034;-74
2023/06/09 07:28:10;;;;;;;8.77;3.90;;;;;;;23.87;48.28;99123.75;5023093;28;20535;-75
2023/06/09 07:30:37;;;;;;;9.55;3.80;;;;;;;24.28;49.35;99121.03;5028017;28;20056;-75
2023/06/09 07:33:04;;;;;;;6.50;3.40;;;;;;;24.25;50.70;99134.94;5027897;28;20285;-74
2023/06/09 07:35:30;;;;;;;4.25;3.42;;;;;;;23.42;48.92;99140.00;5023227;28;20022;-74
2023/06/09 07:37:55;;;;;;;3.65;3.28;;;;;;;23.23;50.01;99126.41;5022940;28;20037;-75
2023/06/09 07:40:21;;;;;;;12.77;4.22;;;;;;;23.30;50.35;99126.34;5025348;28;20029;-75
2023/06/09 07:42:48;;;;;;;4.93;3.25;;;;;;;23.89;50.33;99121.31;5023563;28;20459;-75
2023/06/09 07:45:13;;;;;;;6.32;3.50;;;;;;;24.37;49.15;99124.91;5025702;28;20030;-73
2023/06/09 07:47:38;;;;;;;3.60;3.10;;;;;;;23.92;46.77;99123.28;5029027;28;20067;-76
2023/06/09 07:50:06;;;;;;;4.90;3.30;;;;;;;24.35;47.68;99121.69;5022137;28;20030;-75
2023/06/09 07:52:32;;;;;;;5.40;3.47;;;;;;;23.89;46.68;99117.63;5022897;28;20022;-75
2023/06/09 07:54:57;;;;;;;7.93;3.55;;;;;;;24.37;46.90;99124.91;5024833;28;20511;-73
2023/06/09 07:57:22;;;;;;;3.80;3.42;;;;;;;24.71;44.99;99127.91;5026073;28;20487;-74
2023/06/09 07:59:48;;;;;;;4.97;2.88;;;;;;;24.93;45.43;99126.25;5022615;28;20393;-74
2023/06/09 08:02:13;;;;;;;7.28;3.13;;;;;;;25.19;43.99;99122.81;5028811;28;20052;-74
2023/06/09 08:04:42;;;;;;;6.38;3.13;;;;;;;25.24;45.51;99125.16;5029166;28;20030;-74
2023/06/09 08:07:08;;;;;;;5.07;3.22;;;;;;;25.44;43.57;99127.94;5025082;28;20033;-74
2023/06/09 08:09:34;;;;;;;12.18;3.85;;;;;;;25.59;43.50;99125.56;5023743;28;20412;-74
2023/06/09 08:11:59;;;;;;;6.28;3.67;;;;;;;25.04;42.87;99123.13;5022820;28;20129;-74
2023/06/09 08:14:24;;;;;;;6.03;3.60;;;;;;;24.77;43.82;99131.88;5029203;28;20025;-75
2023/06/09 08:16:50;;;;;;;5.10;3.13;;;;;;;25.28;43.77;99125.03;5025026;28;20034;-75
2023/06/09 08:19:16;;;;;;;5.88;3.50;;;;;;;25.69;41.84;99125.72;5031023;28;20663;-75
2023/06/09 08:21:43;;;;;;;3.30;3.00;;;;;;;25.51;41.57;99122.06;5028282;28;20033;-75
2023/06/09 08:24:10;;;;;;;8.95;3.85;;;;;;;24.86;43.26;99122.72;5027779;28;20030;-75
2023/06/09 08:26:36;;;;;;;4.97;3.38;;;;;;;25.00;42.54;99115.88;5022539;28;20041;-74
2023/06/09 08:29:03;;;;;;;3.90;2.75;;;;;;;25.68;41.37;99115.53;5024305;28;20424;-79
2023/06/09 08:31:29;;;;;;;6.40;3.38;;;;;;;26.05;41.17;99119.06;5026159;28;20037;-77
2023/06/09 08:33:55;;;;;;;7.50;3.78;;;;;;;26.26;40.38;99112.00;5024712;28;20535;-76
2023/06/09 08:36:20;;;;;;;8.77;3.95;;;;;;;26.26;40.89;99111.19;5027759;28;20125;-77
2023/06/09 08:38:46;;;;;;;6.93;3.58;;;;;;;26.12;40.89;99110.28;5015764;28;20485;-79
2023/06/09 08:41:14;;;;;;;6.65;3.67;;;;;;;26.07;40.28;99117.38;5021056;28;20467;-79
2023/06/09 08:43:40;;;;;;;4.93;3.67;;;;;;;26.21;40.21;99101.06;5024377;28;20487;-78
2023/06/09 08:46:09;;;;;;;6.68;3.70;;;;;;;26.31;39.68;99097.09;5023410;28;20060;-76
2023/06/09 08:48:38;;;;;;;5.57;3.63;;;;;;;26.55;40.41;99096.03;5011808;28;20026;-75
2023/06/09 08:51:03;;;;;;;8.07;3.80;;;;;;;26.83;40.75;99091.50;5014124;28;20036;-75
2023/06/09 08:53:31;;;;;;;13.30;4.60;;;;;;;27.10;39.38;99096.03;5013161;28;20029;-76
2023/06/09 08:55:59;;;;;;;5.13;3.80;;;;;;;26.86;39.83;99098.38;5013685;28;20032;-73
2023/06/09 08:58:26;;;;;;;5.30;4.00;;;;;;;26.86;40.87;99095.50;5011403;28;20489;-77
2023/06/09 09:00:52;;;;;;;5.28;3.60;;;;;;;27.01;39.83;99096.69;5015724;28;20026;-75
2023/06/09 09:03:18;;;;;;;11.68;4.68;;;;;;;27.22;39.73;99079.28;5027029;28;20022;-72
2023/06/09 09:05:45;;;;;;;11.82;4.32;;;;;;;27.38;39.46;99082.03;5027686;28;20079;-74
2023/06/09 09:08:14;;;;;;;13.85;4.30;;;;;;;27.51;41.38;99079.13;5014902;28;20024;-75
2023/06/09 09:10:45;;;;;;;4.40;4.00;;;;;;;27.58;40.53;99081.78;5025892;28;20022;-75
2023/06/09 09:13:11;;;;;;;8.63;4.32;;;;;;;27.52;40.95;99077.88;5025957;28;20033;-76
2023/06/09 09:15:37;;;;;;;6.63;4.05;;;;;;;27.92;41.46;99072.88;5011439;28;20025;-76
2023/06/09 09:18:07;;;;;;;5.10;4.25;;;;;;;27.85;38.40;99066.09;5013425;28;20553;-75
2023/06/09 09:20:36;;;;;;;7.07;4.25;;;;;;;27.05;39.63;99074.47;5026869;28;20030;-79
2023/06/09 09:23:03;;;;;;;9.05;4.70;;;;;;;27.26;40.93;99075.00;5022189;28;20026;-77
2023/06/09 09:25:30;;;;;;;7.78;3.97;;;;;;;27.55;39.07;99062.63;5023001;28;20122;-76
2023/06/09 09:28:05;;;;;;;8.00;4.40;;;;;;;27.65;40.63;99062.72;5022379;28;20028;-76
2023/06/09 09:30:41;;;;;;;10.73;4.53;;;;;;;27.73;38.47;99061.19;5018600;28;20038;-77
2023/06/09 09:33:22;;;;;;;5.40;4.07;;;;;;;27.50;39.07;99053.75;5022264;28;20083;-77
2023/06/09 09:35:56;;;;;;;5.55;4.10;;;;;;;27.72;41.10;99048.09;5018833;28;20060;-77
2023/06/09 09:38:29;;;;;;;4.90;4.40;;;;;;;27.96;40.66;99051.34;5022596;28;20095;-77
2023/06/09 09:40:57;;;;;;;8.52;4.68;;;;;;;27.11;39.94;99048.88;5022333;28;20116;-78
2023/06/09 09:43:30;;;;;;;8.63;4.18;;;;;;;27.21;39.33;99046.91;5022779;28;20044;-77
2023/06/09 09:46:04;;;;;;;11.50;4.78;;;;;;;27.59;38.60;99048.13;5024060;28;20116;-78
2023/06/09 09:48:30;;;;;;;6.32;3.92;;;;;;;28.02;40.61;99040.84;5017513;28;20089;-75
2023/06/09 09:50:56;;;;;;;6.80;4.20;;;;;;;28.49;39.78;99040.44;5019824;28;20500;-79
2023/06/09 09:53:23;;;;;;;5.95;4.47;;;;;;;28.61;37.60;99044.50;5017755;28;20029;-79
2023/06/09 09:55:51;;;;;;;8.55;4.93;;;;;;;28.17;37.43;99041.16;5022337;28;20043;-79
2023/06/09 09:58:19;;;;;;;7.75;4.53;;;;;;;28.63;38.58;99039.88;5020064;28;20034;-78
2023/06/09 10:00:46;;;;;;;10.45;5.05;;;;;;;28.85;37.12;99044.81;5017213;28;20559;-79
2023/06/09 10:03:19;;;;;;;6.28;4.20;;;;;;;28.96;37.42;99035.75;5024476;28;20025;-81
2023/06/09 10:05:49;;;;;;;4.80;4.30;;;;;;;29.22;37.70;99033.47;5016508;28;20036;-76
2023/06/09 10:08:21;;;;;;;9.50;4.60;;;;;;;29.17;36.68;99036.16;5009859;28;20260;-79
2023/06/09 10:10:49;;;;;;;6.63;4.45;;;;;;;29.24;35.85;99036.66;5007984;28;20025;-79
2023/06/09 10:13:15;;;;;;;12.15;5.00;;;;;;;29.11;37.17;99033.88;5014036;28;20421;-80
2023/06/09 10:15:44;;;;;;;7.20;4.90;;;;;;;29.16;37.00;99023.81;5009763;28;20241;-78
2023/06/09 10:18:12;;;;;;;11.50;4.93;;;;;;;29.13;36.30;99014.06;5013869;28;20053;-80
2023/06/09 10:20:41;;;;;;;7.95;4.50;;;;;;;29.19;37.14;99019.22;5025480;28;20036;-79
2023/06/09 10:23:07;;;;;;;10.63;5.70;;;;;;;29.44;37.74;99009.53;5011075;28;20021;-77
2023/06/09 10:25:33;;;;;;;11.52;5.78;;;;;;;29.70;35.49;99017.91;5028488;28;20424;-77
2023/06/09 10:27:58;;;;;;;4.72;4.20;;;;;;;29.53;34.28;99015.31;5019830;28;20095;-78
2023/06/09 10:30:24;;;;;;;9.55;4.75;;;;;;;29.34;35.34;99022.28;5011105;28;20084;-78
2023/06/09 10:32:59;;;;;;;4.43;3.95;;;;;;;29.51;34.92;99012.09;5015494;28;20053;-77
2023/06/09 10:35:28;;;;;;;7.25;4.50;;;;;;;29.68;35.12;99009.72;5013417;28;20030;-78
2023/06/09 10:37:56;;;;;;;;;;;;;;;29.97;33.44;99005.56;5029933;28;20451;-78
2023/06/09 10:41:09;;;;;;;5.05;4.30;;;;;;;30.29;34.49;99004.59;5029257;28;19909;-77
2023/06/09 10:43:56;;;;;;;10.00;5.25;;;;;;;30.39;33.30;99001.22;5003976;28;20504;-78
2023/06/09 10:46:42;;;;;;;5.97;4.57;;;;;;;30.17;33.12;98989.88;5027045;28;20027;-78
2023/06/09 10:49:35;;;;;;;5.43;4.10;;;;;;;30.18;33.49;98987.81;5024272;28;20014;-78
2023/06/09 10:52:01;;;;;;;8.18;4.40;;;;;;;30.18;33.47;98987.81;5011528;28;20144;-77
2023/06/09 10:54:28;;;;;;;4.38;3.75;;;;;;;30.37;33.70;98989.38;5022717;28;20025;-78
2023/06/09 10:57:00;;;;;;;8.52;3.60;;;;;;;30.34;33.02;98990.34;5022411;28;20492;-78
2023/06/09 10:59:25;;;;;;;8.32;4.25;;;;;;;30.46;33.33;98987.75;5021470;28;20132;-78
2023/06/09 11:02:15;;;;;;;9.85;5.30;;;;;;;30.37;33.56;98982.81;5026593;28;20524;-78
2023/06/09 11:07:17;;;;;;;8.15;4.35;;;;;;;30.20;32.42;98980.25;5027453;28;20113;-78
2023/06/09 11:09:51;;;;;;;5.70;4.32;;;;;;;30.21;33.41;98976.09;5027080;28;20508;-77
2023/06/09 11:12:45;;;;;;;7.18;3.90;;;;;;;30.16;32.80;98973.06;5025946;28;20045;-77
2023/06/09 11:15:11;;;;;;;5.40;4.10;;;;;;;30.30;32.71;98965.84;5022545;28;20427;-77
2023/06/09 11:17:41;;;;;;;6.10;4.25;;;;;;;30.39;31.78;98972.38;5026622;28;20426;-77
2023/06/09 11:20:10;;;;;;;7.93;4.22;;;;;;;30.53;32.22;98965.13;5029797;28;20048;-77
2023/06/09 11:22:41;;;;;;;4.57;3.85;;;;;;;30.67;32.41;98965.75;5027469;28;20069;-77
2023/06/09 11:25:27;;;;;;;9.48;4.85;;;;;;;31.47;31.92;98956.81;5022281;28;20033;-77
2023/06/09 11:27:59;;;;;;;8.60;3.78;;;;;;;31.51;30.69;98963.22;5020801;28;20045;-80
2023/06/09 11:30:27;;;;;;;6.50;4.40;;;;;;;31.52;30.71;98950.38;5024518;28;20033;-78
2023/06/09 11:33:00;;;;;;;11.98;4.50;;;;;;;31.35;31.67;98961.56;5021563;28;20033;-78
2023/06/09 11:35:29;;;;;;;7.10;4.25;;;;;;;31.14;29.89;98957.66;5027323;28;20033;-78